Timber Lake, Illinois
Current Conditions -  °F | °C
As of 2:52 PM on Friday 24 Oct 2014 (Local Time) from KPWK Reporting Station
Clear Clear  
Wind Chill: 68°   Ceiling: Unl
Heat Index: 68°   Visibility: 10mi
Dew Point: 48°   Wind: 8mph
Humidity: 49%   Direction: 240°WSW
Pressure: 29.98"   Gusts: NA
Location:  42.1512°N, 88.1636°W
Report Text: KPWK 241952Z 24007KT 10SM CLR 20/09 A2998 RMK AO2 SLP151 T02000089
Loading
Personal Weather Stations






























Interactive Weather Map
Tropical Storm Tracking
New forecast layout! Learn more

10-Day Weather Forecast

Advertisements
Track Severe Weather on mobile